Elk Grove Village, IL

3:03 AM CDT en Agosto 29, 2014 (GMT -0500)
Du Page | Change Station
CLOSE
Current Station
Aeropuerto
Location: Chicago DuPage,
Altura: 758 ft
Estaciones meteorológicas cercanas

Alt 758 ft 41.90 °N, 88.25 °W | Updated 11 minutes ago

Mostly Cloudy
Muy nublado
69 ° F
Sensación térmica 69 ° F
N
5
Viento Variable Viento desde SSE

Hoy
Alta -- | Baja -- ° F
--% Posibilidad de precipitaciones
Ayer
Alta -- | Baja -- ° F
Precip. -- pul
6:14 AM 7:30 PM
Creciente, 13% visible
Presión 29.96 pul
Visibilidad 8.0 Millas
Nubes Muy nublado 10000 ft
Punto de rocío 66 ° F
Humedad 90%
Precipitaciones 0.00 pul
Espesor de la nieve No disponible.
UV 0 de una escala de 12
Polen 8.10 de una escala de 12
Ozono Buena
PM2.5 Moderada
Flu Activity No disponible.
METAR KDPA 290752Z 16004KT 8SM BKN100 21/19 A2998 RMK AO2 SLP145 T02060189

More Conditions Fewer Conditions

Presión 29.96 pul
Visibilidad 8.0 Millas
Nubes Muy nublado 10000 ft
Punto de rocío 66 ° F
Humedad 90%
Precipitaciones 0.00 pul
Espesor de la nieve No disponible.
UV 0 de una escala de 12
Polen 8.10 de una escala de 12
Ozono Buena
PM2.5 Moderada
Flu Activity No disponible.
METAR KDPA 290752Z 16004KT 8SM BKN100 21/19 A2998 RMK AO2 SLP145 T02060189

More Conditions Fewer Conditions

10-Day Weather Forecast

Almanac

Astronomía

Aug. 29, 2014 Salida Puesta
Hora real 6:14 AM CDT 7:30 PM CDT
Crepúsculo civil 5:45 AM CDT 7:59 PM CDT
Crepúsculo náutico 5:10 AM CDT 8:33 PM CDT
Crepúsculo astronómico 4:34 AM CDT 9:10 PM CDT
Luna 10:08 AM CDT 9:23 PM CDT
Horas de luz 14h 13m
Horas de luz
13h 16m
Tomorrow will be 2m 42s shorter.
Creciente, 13% of the Moon is Illuminated
Hoy
Creciente
Sep 2
Cuarto creciente
Sep 8
Luna llena
Sep 15
Cuarto menguante
Sep 24
Nueva

Extremos de hoy

Máximos del estado Bajos del estado

Community

WunderPhotos

Upload Photos

1,748,197 ¡fotos cargadas!

Nearby

Calidad del aire

  Calidad del aire Índice AQ Contaminante
Ayer Buena
PM2.5
Ayer Buena
OZONE
Real Moderada
PM2.5
Real Buena
OZONE
Viernes Moderada
PM2.5
Sábado Buena
PM2.5
Domingo Moderada
PM2.5

Grosos de nieve

Estación Profundido Altura
No tenemos constancia de nieve nueva.

Actividad de terremotos

Ciudad Distance Mag. Tiempo y dato
No hay informes recientes de la actividad sísmica.
Magnitud mínima muestra es 2,5.

Temperaturas de aguas costeras

Lugar Temperatura
Sin partes meteorológicos de las estaciones

Estaciones meteorológicas cercanas